Time;durP1;ratioP1;P1;durP2;ratioP2;P2;SDS_P1;SDS_P2;PMS_P1;PMS_P2;Temp;Humidity;BMP_temperature;BMP_pressure;BME280_temperature;BME280_humidity;BME280_pressure;Samples;Min_cycle;Max_cycle;Signal;HPM_P1;HPM_P2
2022/01/21 00:02:18;;;;;;;6.93;2.38;;;;;;;;;;4998854;28;20101;-82
2022/01/21 00:04:53;;;;;;;7.20;2.25;;;;;;;;;;5016241;28;20056;-82
2022/01/21 00:07:18;;;;;;;6.88;2.63;;;;;;;;;;5011556;28;20168;-82
2022/01/21 00:09:46;;;;;;;8.60;2.42;;;;;;;;;;5000700;28;20108;-82
2022/01/21 00:12:11;;;;;;;9.13;2.50;;;;;;;;;;4983424;28;20053;-83
2022/01/21 00:14:59;;;;;;;6.60;2.40;;;;;;;;;;5004747;28;20056;-82
2022/01/21 00:17:25;;;;;;;9.05;2.88;;;;;;;;;;5004824;28;20032;-83
2022/01/21 00:30:06;;;;;;;3.28;1.70;;;;;;;;;;4998415;28;20046;-82
2022/01/21 00:30:51;;;;;;;8.45;2.05;;;;;;;;;;4995823;28;20463;-83
2022/01/21 00:33:16;;;;;;;12.32;2.78;;;;;;;;;;4996333;28;20026;-84
2022/01/21 00:35:41;;;;;;;6.35;2.55;;;;;;;;;;4995467;28;20062;-82
2022/01/21 00:38:07;;;;;;;5.85;2.22;;;;;;;;;;4998081;28;20116;-81
2022/01/21 00:40:33;;;;;;;4.40;1.98;;;;;;;;;;5000776;28;20054;-82
2022/01/21 00:45:43;;;;;;;2.92;1.58;;;;;;;;;;5001651;28;20512;-82
2022/01/21 00:48:09;;;;;;;4.50;2.10;;;;;;;;;;4996832;28;20491;-82
2022/01/21 00:50:34;;;;;;;4.78;2.20;;;;;;;;;;5008879;28;20014;-82
2022/01/21 00:53:00;;;;;;;2.60;2.13;;;;;;;;;;4988848;28;20101;-82
2022/01/21 00:55:26;;;;;;;8.15;2.13;;;;;;;;;;5000994;28;20030;-84
2022/01/21 00:57:51;;;;;;;9.55;2.65;;;;;;;;;;5004819;28;20102;-83
2022/01/21 01:00:17;;;;;;;16.50;3.05;;;;;;;;;;5004975;28;20069;-84
2022/01/21 01:02:43;;;;;;;10.63;2.42;;;;;;;;;;5004814;28;20066;-82
2022/01/21 01:05:09;;;;;;;5.03;2.03;;;;;;;;;;5003151;28;20096;-83
2022/01/21 01:07:35;;;;;;;5.38;2.13;;;;;;;;;;5001860;28;20080;-84
2022/01/21 01:10:01;;;;;;;8.73;2.33;;;;;;;;;;5002378;28;20030;-83
2022/01/21 01:20:21;;;;;;;6.25;3.00;;;;;;;;;;5002899;28;20069;-83
2022/01/21 01:23:04;;;;;;;5.53;2.08;;;;;;;;;;5005086;28;20022;-82
2022/01/21 01:28:13;;;;;;;6.45;2.35;;;;;;;;;;4999933;28;20065;-83
2022/01/21 01:30:38;;;;;;;9.30;1.55;;;;;;;;;;4998874;28;20041;-83
2022/01/21 01:33:07;;;;;;;9.05;2.13;;;;;;;;;;4985371;28;20018;-83
2022/01/21 01:35:35;;;;;;;4.43;2.17;;;;;;;;;;4987600;28;20085;-83
2022/01/21 01:40:51;;;;;;;12.23;2.85;;;;;;;;;;5010061;28;20076;-83
2022/01/21 01:51:13;;;;;;;8.95;2.72;;;;;;;;;;5001120;28;20084;-83
2022/01/21 01:53:46;;;;;;;10.20;2.50;;;;;;;;;;5016003;28;20021;-83
2022/01/21 01:56:15;;;;;;;5.90;1.80;;;;;;;;;;5010151;28;20102;-84
2022/01/21 01:58:41;;;;;;;11.60;2.40;;;;;;;;;;4976540;28;20034;-82
2022/01/21 02:01:08;;;;;;;6.18;3.03;;;;;;;;;;5014521;28;20033;-83
2022/01/21 02:03:34;;;;;;;9.07;2.30;;;;;;;;;;4999620;28;20031;-83
2022/01/21 02:06:00;;;;;;;4.10;1.77;;;;;;;;;;5008242;28;20470;-83
2022/01/21 02:08:27;;;;;;;5.63;2.22;;;;;;;;;;4998532;28;20050;-83
2022/01/21 02:10:53;;;;;;;4.03;1.80;;;;;;;;;;4999323;28;20046;-83
2022/01/21 02:13:24;;;;;;;7.68;2.55;;;;;;;;;;4981545;28;20061;-84
2022/01/21 02:16:10;;;;;;;8.85;2.45;;;;;;;;;;5008754;28;20111;-83
2022/01/21 02:23:54;;;;;;;8.05;2.13;;;;;;;;;;5003055;28;20049;-83
2022/01/21 02:26:19;;;;;;;7.05;2.42;;;;;;;;;;4990228;28;20023;-82
2022/01/21 02:28:45;;;;;;;7.50;2.40;;;;;;;;;;4997661;28;20076;-83
2022/01/21 02:31:10;;;;;;;4.97;2.15;;;;;;;;;;5008651;28;20022;-83
2022/01/21 02:33:36;;;;;;;9.68;2.63;;;;;;;;;;5009029;28;20033;-83
2022/01/21 02:36:01;;;;;;;12.05;2.70;;;;;;;;;;5001240;28;20030;-83
2022/01/21 02:38:26;;;;;;;6.70;2.40;;;;;;;;;;5001768;28;20022;-82
2022/01/21 02:40:52;;;;;;;2.70;1.75;;;;;;;;;;5000195;28;20089;-81
2022/01/21 02:43:17;;;;;;;4.38;2.13;;;;;;;;;;4998706;28;20027;-83
2022/01/21 02:45:46;;;;;;;4.90;2.55;;;;;;;;;;5009571;28;20157;-82
2022/01/21 02:48:12;;;;;;;7.00;2.10;;;;;;;;;;4997823;28;20029;-83
2022/01/21 02:50:37;;;;;;;10.20;2.33;;;;;;;;;;4982670;28;20034;-83
2022/01/21 02:53:13;;;;;;;9.80;3.20;;;;;;;;;;5006042;28;20429;-82
2022/01/21 02:55:39;;;;;;;6.95;2.42;;;;;;;;;;4986168;28;20065;-82
2022/01/21 02:58:04;;;;;;;5.47;2.53;;;;;;;;;;4997837;28;20033;-82
2022/01/21 03:00:30;;;;;;;8.48;2.72;;;;;;;;;;5004775;28;20022;-82
2022/01/21 03:02:55;;;;;;;8.57;2.55;;;;;;;;;;5002123;28;20029;-83
2022/01/21 03:05:21;;;;;;;7.32;2.47;;;;;;;;;;5014461;28;20033;-83
2022/01/21 03:07:47;;;;;;;5.85;1.95;;;;;;;;;;5001876;28;20475;-82
2022/01/21 03:10:15;;;;;;;11.90;2.83;;;;;;;;;;4995389;28;20250;-82
2022/01/21 03:12:41;;;;;;;10.88;2.70;;;;;;;;;;5005490;28;20411;-82
2022/01/21 03:15:07;;;;;;;4.82;2.35;;;;;;;;;;5001953;28;20026;-83
2022/01/21 03:17:34;;;;;;;11.13;2.78;;;;;;;;;;4982527;28;20034;-83
2022/01/21 03:20:00;;;;;;;11.82;2.55;;;;;;;;;;5004700;28;20522;-83
2022/01/21 03:22:25;;;;;;;8.95;2.72;;;;;;;;;;5011732;28;20038;-83
2022/01/21 03:24:51;;;;;;;9.38;2.58;;;;;;;;;;5009693;28;20027;-83
2022/01/21 03:27:16;;;;;;;10.02;3.13;;;;;;;;;;5007349;28;20058;-83
2022/01/21 03:29:42;;;;;;;6.68;2.35;;;;;;;;;;5004039;28;20018;-83
2022/01/21 03:32:08;;;;;;;5.43;2.53;;;;;;;;;;4987308;28;20026;-83
2022/01/21 03:34:34;;;;;;;11.00;2.38;;;;;;;;;;4983355;28;20029;-83
2022/01/21 03:37:01;;;;;;;4.32;2.05;;;;;;;;;;5006084;28;20362;-83
2022/01/21 03:39:26;;;;;;;6.78;2.70;;;;;;;;;;5001236;28;20026;-83
2022/01/21 03:41:52;;;;;;;7.25;2.30;;;;;;;;;;5005054;28;20396;-83
2022/01/21 03:44:17;;;;;;;5.05;2.00;;;;;;;;;;5006317;28;20026;-83
2022/01/21 03:46:43;;;;;;;10.18;2.65;;;;;;;;;;5001903;28;20034;-83
2022/01/21 03:49:09;;;;;;;7.10;2.72;;;;;;;;;;5002123;28;20034;-83
2022/01/21 03:51:34;;;;;;;13.38;2.40;;;;;;;;;;5003556;28;20026;-83
2022/01/21 03:54:00;;;;;;;7.05;2.65;;;;;;;;;;5008724;28;20125;-83
2022/01/21 03:56:25;;;;;;;8.23;2.60;;;;;;;;;;5000725;28;20496;-83
2022/01/21 03:58:51;;;;;;;10.85;2.50;;;;;;;;;;5001055;28;20030;-83
2022/01/21 04:01:18;;;;;;;7.72;2.75;;;;;;;;;;4980370;28;20063;-82
2022/01/21 04:03:43;;;;;;;6.60;2.30;;;;;;;;;;5000734;28;20017;-82
2022/01/21 04:06:09;;;;;;;5.90;2.83;;;;;;;;;;4998217;28;20121;-82
2022/01/21 04:08:34;;;;;;;10.20;2.88;;;;;;;;;;5002060;28;20467;-83
2022/01/21 04:11:00;;;;;;;13.02;3.10;;;;;;;;;;4998499;28;20391;-83
2022/01/21 04:13:26;;;;;;;8.90;2.92;;;;;;;;;;4998903;28;20129;-83
2022/01/21 04:15:53;;;;;;;10.52;3.03;;;;;;;;;;5002865;28;20057;-82
2022/01/21 04:18:20;;;;;;;14.18;3.38;;;;;;;;;;5002642;28;20030;-82
2022/01/21 04:20:47;;;;;;;5.75;2.75;;;;;;;;;;5014453;28;20105;-81
2022/01/21 04:23:16;;;;;;;8.55;2.80;;;;;;;;;;4988956;28;20014;-83
2022/01/21 04:25:42;;;;;;;5.75;2.40;;;;;;;;;;4996681;28;20116;-82
2022/01/21 04:28:08;;;;;;;10.13;2.67;;;;;;;;;;4997332;28;20440;-82
2022/01/21 04:30:34;;;;;;;7.15;2.63;;;;;;;;;;5010469;28;20041;-83
2022/01/21 04:33:03;;;;;;;4.10;2.78;;;;;;;;;;5000140;28;20022;-82
2022/01/21 04:35:29;;;;;;;9.48;2.90;;;;;;;;;;4992374;28;20028;-82
2022/01/21 04:38:01;;;;;;;8.48;3.85;;;;;;;;;;5007579;28;20022;-82
2022/01/21 04:40:33;;;;;;;7.00;2.65;;;;;;;;;;5001095;28;20030;-83
2022/01/21 04:48:29;;;;;;;22.02;3.90;;;;;;;;;;4992785;28;20134;-83
2022/01/21 04:50:58;;;;;;;9.45;2.95;;;;;;;;;;4997943;28;20026;-82
2022/01/21 04:53:26;;;;;;;5.40;2.33;;;;;;;;;;4978799;28;20075;-81
2022/01/21 04:55:52;;;;;;;12.55;3.15;;;;;;;;;;4977705;28;20035;-82
2022/01/21 04:58:18;;;;;;;11.05;2.97;;;;;;;;;;5017938;28;20022;-82
2022/01/21 05:00:46;;;;;;;9.60;2.40;;;;;;;;;;5019096;28;20419;-83
2022/01/21 05:03:17;;;;;;;13.50;2.92;;;;;;;;;;5018347;28;20029;-83
2022/01/21 05:05:42;;;;;;;10.45;2.92;;;;;;;;;;5014503;28;20431;-83
2022/01/21 05:08:19;;;;;;;10.73;3.97;;;;;;;;;;4996756;28;20501;-83
2022/01/21 05:10:44;;;;;;;5.43;2.78;;;;;;;;;;5002456;28;20026;-83
2022/01/21 05:13:10;;;;;;;8.60;3.38;;;;;;;;;;5002039;28;20391;-83
2022/01/21 05:18:19;;;;;;;10.02;3.00;;;;;;;;;;4991703;28;20048;-83
2022/01/21 05:20:44;;;;;;;12.25;2.63;;;;;;;;;;4998821;28;20026;-83
2022/01/21 05:23:09;;;;;;;11.00;2.38;;;;;;;;;;5006874;28;20030;-82
2022/01/21 05:25:35;;;;;;;6.03;2.35;;;;;;;;;;5001210;28;20043;-81
2022/01/21 05:28:00;;;;;;;6.63;2.63;;;;;;;;;;4983230;28;20026;-82
2022/01/21 05:30:26;;;;;;;5.50;2.72;;;;;;;;;;4996788;28;20030;-82
2022/01/21 05:32:51;;;;;;;6.25;2.65;;;;;;;;;;5005506;28;20025;-82
2022/01/21 05:35:17;;;;;;;7.72;3.30;;;;;;;;;;4998993;28;20022;-82
2022/01/21 05:37:42;;;;;;;6.55;2.95;;;;;;;;;;4999920;28;20033;-82
2022/01/21 05:40:13;;;;;;;6.40;2.47;;;;;;;;;;4998304;28;20097;-82
2022/01/21 05:42:39;;;;;;;9.25;2.72;;;;;;;;;;5000640;28;20026;-83
2022/01/21 05:47:31;;;;;;;12.18;3.10;;;;;;;;;;4999009;28;20492;-83
2022/01/21 05:49:56;;;;;;;10.20;3.45;;;;;;;;;;5000270;28;20036;-82
2022/01/21 05:52:31;;;;;;;9.00;3.05;;;;;;;;;;4999009;28;20137;-84
2022/01/21 05:54:56;;;;;;;6.65;2.38;;;;;;;;;;4998770;28;20031;-82
2022/01/21 05:57:21;;;;;;;5.18;2.65;;;;;;;;;;5000356;28;20080;-83
2022/01/21 05:59:49;;;;;;;5.45;2.78;;;;;;;;;;5003702;28;20023;-81
2022/01/21 06:02:15;;;;;;;10.18;3.42;;;;;;;;;;4993597;28;20037;-82
2022/01/21 06:04:43;;;;;;;5.55;2.97;;;;;;;;;;5004294;28;20516;-82
2022/01/21 06:07:09;;;;;;;9.98;3.08;;;;;;;;;;4998976;28;20034;-83
2022/01/21 06:09:35;;;;;;;4.88;3.00;;;;;;;;;;5004500;28;20038;-83
2022/01/21 06:12:00;;;;;;;9.93;3.10;;;;;;;;;;4999071;28;20030;-82
2022/01/21 06:14:25;;;;;;;7.22;2.58;;;;;;;;;;5008912;28;20030;-81
2022/01/21 06:16:54;;;;;;;5.90;3.20;;;;;;;;;;5002618;28;20034;-83
2022/01/21 06:19:19;;;;;;;8.63;3.65;;;;;;;;;;4983921;28;20038;-80
2022/01/21 06:21:48;;;;;;;8.77;2.80;;;;;;;;;;5000740;28;20053;-83
2022/01/21 06:24:13;;;;;;;14.50;3.70;;;;;;;;;;4998931;28;20097;-82
2022/01/21 06:26:39;;;;;;;7.47;2.70;;;;;;;;;;4999633;28;20370;-85
2022/01/21 06:29:04;;;;;;;10.10;3.25;;;;;;;;;;4999209;28;20032;-82
2022/01/21 06:31:33;;;;;;;15.75;3.92;;;;;;;;;;4981553;28;20026;-83
2022/01/21 06:33:58;;;;;;;17.27;3.33;;;;;;;;;;4995476;28;20065;-81
2022/01/21 06:36:24;;;;;;;8.07;3.75;;;;;;;;;;4989876;28;20026;-83
2022/01/21 06:38:49;;;;;;;11.35;3.40;;;;;;;;;;4981394;28;20524;-83
2022/01/21 06:41:15;;;;;;;10.43;3.33;;;;;;;;;;5003136;28;20025;-84
2022/01/21 06:43:40;;;;;;;7.57;2.97;;;;;;;;;;4982053;28;20071;-83
2022/01/21 06:46:07;;;;;;;8.45;3.45;;;;;;;;;;4982610;28;20032;-83
2022/01/21 06:48:33;;;;;;;4.28;2.95;;;;;;;;;;4999012;28;20054;-84
2022/01/21 06:50:59;;;;;;;14.43;3.53;;;;;;;;;;4993761;28;20092;-84
2022/01/21 06:53:24;;;;;;;12.00;3.50;;;;;;;;;;5004770;28;20026;-84
2022/01/21 06:55:49;;;;;;;13.50;3.45;;;;;;;;;;5006055;28;20042;-84
2022/01/21 06:58:15;;;;;;;5.85;3.45;;;;;;;;;;4997570;28;20038;-83
2022/01/21 07:00:40;;;;;;;13.27;3.63;;;;;;;;;;5003757;28;20069;-83
2022/01/21 07:03:06;;;;;;;14.68;3.85;;;;;;;;;;4983143;28;20034;-81
2022/01/21 07:05:31;;;;;;;9.77;4.25;;;;;;;;;;5010282;28;20026;-82
2022/01/21 07:07:58;;;;;;;13.10;3.40;;;;;;;;;;4999662;28;20030;-84
2022/01/21 07:10:24;;;;;;;8.43;3.22;;;;;;;;;;4990786;28;20040;-83
2022/01/21 07:12:50;;;;;;;11.77;4.68;;;;;;;;;;5009038;28;20469;-83
2022/01/21 07:15:18;;;;;;;11.85;3.42;;;;;;;;;;5013225;28;20032;-84
2022/01/21 07:17:44;;;;;;;4.32;3.30;;;;;;;;;;5008469;28;20022;-84
2022/01/21 07:20:09;;;;;;;11.27;3.92;;;;;;;;;;5012178;28;20046;-82
2022/01/21 07:22:35;;;;;;;7.10;3.45;;;;;;;;;;5005448;28;20476;-85
2022/01/21 07:25:01;;;;;;;12.07;4.32;;;;;;;;;;4993589;28;20128;-85
2022/01/21 07:27:26;;;;;;;7.65;3.30;;;;;;;;;;5000476;28;20057;-86
2022/01/21 07:29:52;;;;;;;7.00;3.28;;;;;;;;;;5005285;28;20046;-85
2022/01/21 07:32:17;;;;;;;12.02;3.92;;;;;;;;;;5004203;28;20046;-84
2022/01/21 07:34:42;;;;;;;11.70;3.70;;;;;;;;;;4982898;28;20014;-86
2022/01/21 07:37:08;;;;;;;10.52;3.45;;;;;;;;;;5007934;28;20183;-84
2022/01/21 07:39:33;;;;;;;7.45;3.88;;;;;;;;;;4999604;28;20038;-84
2022/01/21 07:41:59;;;;;;;5.88;3.70;;;;;;;;;;5008856;28;20030;-86
2022/01/21 07:44:25;;;;;;;7.88;3.92;;;;;;;;;;4982439;28;20435;-86
2022/01/21 07:46:50;;;;;;;9.63;3.97;;;;;;;;;;4989813;28;20117;-85
2022/01/21 07:49:16;;;;;;;10.32;3.90;;;;;;;;;;4999091;28;20018;-85
2022/01/21 07:51:42;;;;;;;9.45;3.55;;;;;;;;;;4996646;28;20554;-86
2022/01/21 07:54:08;;;;;;;7.65;3.42;;;;;;;;;;4999654;28;20026;-86
2022/01/21 07:56:35;;;;;;;10.77;3.60;;;;;;;;;;4994587;28;20472;-86
2022/01/21 07:59:03;;;;;;;10.73;3.90;;;;;;;;;;5018823;28;20026;-86
2022/01/21 08:01:28;;;;;;;15.55;4.53;;;;;;;;;;5012588;28;20070;-84
2022/01/21 08:03:54;;;;;;;9.65;3.97;;;;;;;;;;5002184;28;20205;-86
2022/01/21 08:06:19;;;;;;;11.55;4.05;;;;;;;;;;5005855;28;20033;-84
2022/01/21 08:08:45;;;;;;;9.35;3.97;;;;;;;;;;4997564;28;20054;-86
2022/01/21 08:11:10;;;;;;;11.75;3.67;;;;;;;;;;4999716;28;20017;-86
2022/01/21 08:13:35;;;;;;;10.15;3.70;;;;;;;;;;5003594;28;20025;-85
2022/01/21 08:16:01;;;;;;;11.07;4.18;;;;;;;;;;5005182;28;20541;-86
2022/01/21 08:18:26;;;;;;;14.63;3.60;;;;;;;;;;5005095;28;20034;-83
2022/01/21 08:20:52;;;;;;;13.52;3.80;;;;;;;;;;5008698;28;20475;-85
2022/01/21 08:23:19;;;;;;;12.10;4.03;;;;;;;;;;5009937;28;20050;-86
2022/01/21 08:25:45;;;;;;;11.57;4.20;;;;;;;;;;5007008;28;20034;-84
2022/01/21 08:28:10;;;;;;;10.82;4.30;;;;;;;;;;4986337;28;20109;-85
2022/01/21 08:30:36;;;;;;;14.77;4.13;;;;;;;;;;5003493;28;20034;-85
2022/01/21 08:33:02;;;;;;;13.27;4.43;;;;;;;;;;5010942;28;20026;-86
2022/01/21 08:35:28;;;;;;;13.20;4.57;;;;;;;;;;5012046;28;20030;-85
2022/01/21 08:37:53;;;;;;;12.63;4.55;;;;;;;;;;4990160;28;20042;-85
2022/01/21 08:40:20;;;;;;;10.93;4.25;;;;;;;;;;5012064;28;20040;-83
2022/01/21 08:42:46;;;;;;;17.85;5.00;;;;;;;;;;4988981;28;20183;-86
2022/01/21 08:45:12;;;;;;;9.05;4.40;;;;;;;;;;5019561;28;20030;-87
2022/01/21 08:47:40;;;;;;;13.80;4.28;;;;;;;;;;5008894;28;20032;-81
2022/01/21 08:50:09;;;;;;;15.63;5.20;;;;;;;;;;5002947;28;20030;-86
2022/01/21 08:52:38;;;;;;;15.35;4.05;;;;;;;;;;5010783;28;20034;-84
2022/01/21 08:55:08;;;;;;;14.02;5.65;;;;;;;;;;5007342;28;20038;-87
2022/01/21 08:57:36;;;;;;;6.95;3.58;;;;;;;;;;4997816;28;20030;-86
2022/01/21 09:00:07;;;;;;;13.93;4.53;;;;;;;;;;4997812;28;20034;-87
2022/01/21 09:02:32;;;;;;;15.52;4.68;;;;;;;;;;5000283;28;20035;-87
2022/01/21 09:04:58;;;;;;;9.98;4.45;;;;;;;;;;4998791;28;20038;-87
2022/01/21 09:07:23;;;;;;;10.20;4.90;;;;;;;;;;5002447;28;20473;-87
2022/01/21 09:09:48;;;;;;;9.80;4.35;;;;;;;;;;5001219;28;20034;-85
2022/01/21 09:12:14;;;;;;;8.10;3.85;;;;;;;;;;4993813;28;20022;-84
2022/01/21 09:14:39;;;;;;;12.38;5.00;;;;;;;;;;4995747;28;20038;-87
2022/01/21 09:17:04;;;;;;;10.98;4.45;;;;;;;;;;5010524;28;20036;-87
2022/01/21 09:19:32;;;;;;;10.25;4.38;;;;;;;;;;4982992;28;20038;-87
2022/01/21 09:21:57;;;;;;;11.70;4.30;;;;;;;;;;5000540;28;20030;-87
2022/01/21 09:24:23;;;;;;;8.75;4.05;;;;;;;;;;5012114;28;20488;-87
2022/01/21 09:26:49;;;;;;;9.52;3.97;;;;;;;;;;4984228;28;20370;-87
2022/01/21 09:32:20;;;;;;;13.57;5.28;;;;;;;;;;5005750;28;20503;-88
2022/01/21 09:34:49;;;;;;;11.40;4.07;;;;;;;;;;5018763;28;20041;-88
2022/01/21 09:37:14;;;;;;;9.73;3.95;;;;;;;;;;5004214;28;20033;-86
2022/01/21 09:39:40;;;;;;;13.05;4.75;;;;;;;;;;4984092;28;20041;-86
2022/01/21 09:42:07;;;;;;;12.27;4.53;;;;;;;;;;4996468;28;20028;-87
2022/01/21 09:44:33;;;;;;;12.38;4.50;;;;;;;;;;4995288;28;20439;-86
2022/01/21 09:47:00;;;;;;;10.35;4.45;;;;;;;;;;4998787;28;20515;-87
2022/01/21 09:49:26;;;;;;;12.80;4.25;;;;;;;;;;5002000;28;20033;-88
2022/01/21 09:51:57;;;;;;;15.18;4.93;;;;;;;;;;5005015;28;20133;-87
2022/01/21 09:54:24;;;;;;;8.63;4.25;;;;;;;;;;5000910;28;20472;-87
2022/01/21 09:56:52;;;;;;;11.18;5.65;;;;;;;;;;4996034;28;20037;-86
2022/01/21 09:59:19;;;;;;;10.10;3.80;;;;;;;;;;5003729;28;20084;-88
2022/01/21 10:01:48;;;;;;;8.05;4.40;;;;;;;;;;5010746;28;20519;-86
2022/01/21 10:04:14;;;;;;;12.00;4.43;;;;;;;;;;4994437;28;20030;-86
2022/01/21 10:06:40;;;;;;;13.45;3.58;;;;;;;;;;4997370;28;20045;-82
2022/01/21 10:09:07;;;;;;;6.70;3.47;;;;;;;;;;4985407;28;20061;-83
2022/01/21 10:11:32;;;;;;;14.18;3.60;;;;;;;;;;5011090;28;20034;-84
2022/01/21 10:13:58;;;;;;;16.38;4.43;;;;;;;;;;5013333;28;20032;-84
2022/01/21 10:16:23;;;;;;;10.23;4.28;;;;;;;;;;5018622;28;20030;-85
2022/01/21 10:19:03;;;;;;;6.68;3.38;;;;;;;;;;5008273;28;20088;-83
2022/01/21 10:21:33;;;;;;;15.82;4.65;;;;;;;;;;5001868;28;20029;-84
2022/01/21 10:24:13;;;;;;;8.73;3.42;;;;;;;;;;5007711;28;20030;-86
2022/01/21 10:26:47;;;;;;;7.80;3.65;;;;;;;;;;4981820;28;20045;-84
2022/01/21 10:29:13;;;;;;;6.35;2.88;;;;;;;;;;4996296;28;20050;-86
2022/01/21 10:31:57;;;;;;;9.95;3.63;;;;;;;;;;4981406;28;20031;-83
2022/01/21 10:34:40;;;;;;;18.55;4.00;;;;;;;;;;4981569;28;20125;-85
2022/01/21 10:37:24;;;;;;;;;;;;;;;;;;5001290;28;20026;-83
2022/01/21 10:40:08;;;;;;;11.80;3.50;;;;;;;;;;4996618;28;19918;-84
2022/01/21 10:42:34;;;;;;;13.45;3.95;;;;;;;;;;4999072;28;20076;-84
2022/01/21 10:45:01;;;;;;;11.57;3.47;;;;;;;;;;5002634;28;20077;-83
2022/01/21 10:47:32;;;;;;;16.17;3.90;;;;;;;;;;5008577;28;20037;-84
2022/01/21 10:50:11;;;;;;;5.85;3.15;;;;;;;;;;4999248;28;20034;-84
2022/01/21 10:52:45;;;;;;;12.80;3.60;;;;;;;;;;4986421;28;20513;-84
2022/01/21 10:55:29;;;;;;;12.20;3.60;;;;;;;;;;5000095;28;20026;-83
2022/01/21 11:01:53;;;;;;;5.43;3.10;;;;;;;;;;4963135;28;20481;-83
2022/01/21 11:04:28;;;;;;;8.18;3.03;;;;;;;;;;4999892;28;20037;-83
2022/01/21 11:07:03;;;;;;;4.07;1.70;;;;;;;;;;4983569;28;20062;-85
2022/01/21 11:09:44;;;;;;;4.53;2.38;;;;;;;;;;5000915;28;20030;-84
2022/01/21 11:12:20;;;;;;;10.35;2.92;;;;;;;;;;5007128;28;20030;-84
2022/01/21 11:15:13;;;;;;;18.10;3.42;;;;;;;;;;5012320;28;20131;-85
2022/01/21 11:18:02;;;;;;;15.43;3.65;;;;;;;;;;4995139;28;20089;-83
2022/01/21 11:20:33;;;;;;;6.03;2.22;;;;;;;;;;4996115;28;20018;-82
2022/01/21 11:23:41;;;;;;;10.45;3.03;;;;;;;;;;5009176;28;20018;-84
2022/01/21 11:26:20;;;;;;;9.73;3.03;;;;;;;;;;4980310;28;20104;-84
2022/01/21 11:28:55;;;;;;;11.57;2.75;;;;;;;;;;4997228;28;20037;-84
2022/01/21 11:31:23;;;;;;;9.23;3.08;;;;;;;;;;5000948;28;20029;-84
2022/01/21 11:34:04;;;;;;;7.22;2.72;;;;;;;;;;4994715;28;20029;-84
2022/01/21 11:36:54;;;;;;;6.13;2.40;;;;;;;;;;4984733;28;20112;-85
2022/01/21 11:39:32;;;;;;;4.63;2.03;;;;;;;;;;4971099;28;20039;-84
2022/01/21 11:42:10;;;;;;;3.53;2.42;;;;;;;;;;5004637;28;20082;-82
2022/01/21 11:44:51;;;;;;;5.72;2.63;;;;;;;;;;5014796;28;20030;-84
2022/01/21 11:47:50;;;;;;;8.25;2.42;;;;;;;;;;5003123;28;20586;-83
2022/01/21 11:50:45;;;;;;;10.40;2.78;;;;;;;;;;5019533;28;20032;-81
2022/01/21 11:53:14;;;;;;;8.25;3.10;;;;;;;;;;5018371;28;20030;-85
2022/01/21 11:56:06;;;;;;;6.55;3.15;;;;;;;;;;5011280;28;20037;-84
2022/01/21 11:58:35;;;;;;;9.70;2.17;;;;;;;;;;4995232;28;20566;-83
2022/01/21 12:01:52;;;;;;;3.58;2.35;;;;;;;;;;4998498;28;20041;-83
2022/01/21 12:04:29;;;;;;;10.27;2.85;;;;;;;;;;5001001;28;20026;-80
2022/01/21 12:06:59;;;;;;;7.65;3.05;;;;;;;;;;4996068;28;20030;-82
2022/01/21 12:09:55;;;;;;;11.07;3.10;;;;;;;;;;4993627;28;20067;-82
2022/01/21 12:12:25;;;;;;;8.63;2.45;;;;;;;;;;4989599;28;20026;-81
2022/01/21 12:15:04;;;;;;;13.90;3.63;;;;;;;;;;5006206;28;20022;-82
2022/01/21 12:17:50;;;;;;;4.97;2.65;;;;;;;;;;5018692;28;20050;-82
2022/01/21 12:20:37;;;;;;;12.82;3.60;;;;;;;;;;5000113;28;20057;-81
2022/01/21 12:23:18;;;;;;;4.70;1.67;;;;;;;;;;5001262;28;20038;-83
2022/01/21 12:26:40;;;;;;;6.97;2.50;;;;;;;;;;4998935;28;20035;-85
2022/01/21 12:29:32;;;;;;;5.53;2.63;;;;;;;;;;4917719;29;20038;-85
2022/01/21 12:32:13;;;;;;;7.70;2.10;;;;;;;;;;4915613;29;20127;-84
2022/01/21 12:34:57;;;;;;;8.90;3.22;;;;;;;;;;4921605;29;20032;-83
2022/01/21 12:37:26;;;;;;;18.48;2.20;;;;;;;;;;4912647;29;20047;-83
2022/01/21 12:39:52;;;;;;;12.77;3.08;;;;;;;;;;4937711;28;20413;-83
2022/01/21 12:42:24;;;;;;;8.13;2.42;;;;;;;;;;5003326;28;20021;-83
2022/01/21 12:45:17;;;;;;;7.45;2.25;;;;;;;;;;4998669;28;20069;-83
2022/01/21 12:47:45;;;;;;;5.15;2.53;;;;;;;;;;5003842;28;20030;-84
2022/01/21 12:50:34;;;;;;;8.80;2.13;;;;;;;;;;5014676;28;20032;-83
2022/01/21 12:58:25;;;;;;;4.38;1.90;;;;;;;;;;5028331;28;20037;-83
2022/01/21 13:01:04;;;;;;;7.25;2.35;;;;;;;;;;5028375;28;20037;-82
2022/01/21 13:03:47;;;;;;;8.65;2.42;;;;;;;;;;5027777;28;20030;-82
2022/01/21 13:06:15;;;;;;;7.43;2.25;;;;;;;;;;5023207;28;20026;-82
2022/01/21 13:08:52;;;;;;;7.63;2.55;;;;;;;;;;5005118;28;20048;-83
2022/01/21 13:11:25;;;;;;;5.97;2.47;;;;;;;;;;5005761;28;20025;-85
2022/01/21 13:17:02;;;;;;;3.65;2.05;;;;;;;;;;5009945;28;20110;-85
2022/01/21 13:19:29;;;;;;;5.13;1.90;;;;;;;;;;4994053;28;20041;-81
2022/01/21 13:21:55;;;;;;;10.90;2.38;;;;;;;;;;5006954;23;20037;-85
2022/01/21 13:24:31;;;;;;;5.43;2.58;;;;;;;;;;5014240;28;20475;-83
2022/01/21 13:26:58;;;;;;;10.38;2.10;;;;;;;;;;5031466;28;20029;-82
2022/01/21 13:29:29;;;;;;;5.20;2.03;;;;;;;;;;5029576;28;20038;-83
2022/01/21 13:31:57;;;;;;;8.95;2.08;;;;;;;;;;5020067;28;20108;-82
2022/01/21 13:34:30;;;;;;;8.35;2.10;;;;;;;;;;5018244;28;20049;-84
2022/01/21 13:36:58;;;;;;;4.28;2.20;;;;;;;;;;5031915;28;20087;-82
2022/01/21 13:39:33;;;;;;;8.40;2.15;;;;;;;;;;5031762;28;20060;-82
2022/01/21 13:42:01;;;;;;;9.93;2.05;;;;;;;;;;5031934;28;20026;-83
2022/01/21 13:44:48;;;;;;;7.32;3.03;;;;;;;;;;5005048;28;20033;-84
2022/01/21 13:47:25;;;;;;;7.35;2.30;;;;;;;;;;5028876;28;20041;-84
2022/01/21 13:49:52;;;;;;;12.65;1.73;;;;;;;;;;5038400;28;20065;-82
2022/01/21 13:52:17;;;;;;;17.10;2.53;;;;;;;;;;5015545;28;20076;-82
2022/01/21 13:54:46;;;;;;;9.05;2.20;;;;;;;;;;5013323;28;20026;-83
2022/01/21 13:57:12;;;;;;;5.35;2.20;;;;;;;;;;5008419;28;20432;-82
2022/01/21 13:59:46;;;;;;;16.50;2.75;;;;;;;;;;5028637;28;20498;-83
2022/01/21 14:02:17;;;;;;;11.30;2.45;;;;;;;;;;5033050;28;20022;-83
2022/01/21 14:05:04;;;;;;;11.95;2.35;;;;;;;;;;5012288;28;20091;-83
2022/01/21 14:07:34;;;;;;;8.88;2.95;;;;;;;;;;5004040;28;20065;-81
2022/01/21 14:10:02;;;;;;;4.53;2.22;;;;;;;;;;5026604;28;20022;-82
2022/01/21 14:12:30;;;;;;;7.00;2.55;;;;;;;;;;5025485;28;20029;-83
2022/01/21 14:14:55;;;;;;;7.35;3.08;;;;;;;;;;5027985;28;20042;-84
2022/01/21 14:17:24;;;;;;;13.20;3.45;;;;;;;;;;5011904;28;20018;-84
2022/01/21 14:20:00;;;;;;;3.13;1.80;;;;;;;;;;5026506;28;20022;-82
2022/01/21 14:22:25;;;;;;;17.17;2.92;;;;;;;;;;5027448;28;20029;-79
2022/01/21 14:24:53;;;;;;;5.22;2.00;;;;;;;;;;5026134;28;20029;-83
2022/01/21 14:27:23;;;;;;;11.18;2.33;;;;;;;;;;5011060;28;20164;-79
2022/01/21 14:29:56;;;;;;;7.60;2.50;;;;;;;;;;5003699;28;20026;-80
2022/01/21 14:32:31;;;;;;;6.65;2.08;;;;;;;;;;5016963;28;20026;-84
2022/01/21 14:35:14;;;;;;;5.03;2.25;;;;;;;;;;5024401;28;20034;-83
2022/01/21 14:37:41;;;;;;;;;;;;;;;;;;5004194;28;20116;-82
2022/01/21 14:40:09;;;;;;;4.93;2.45;;;;;;;;;;5018019;28;20071;-84
2022/01/21 14:42:34;;;;;;;7.03;1.90;;;;;;;;;;5019650;28;20026;-82
2022/01/21 14:45:10;;;;;;;3.55;1.98;;;;;;;;;;5019642;28;20032;-83
2022/01/21 14:47:36;;;;;;;4.22;1.92;;;;;;;;;;5025063;28;20037;-82
2022/01/21 14:50:10;;;;;;;1.92;1.60;;;;;;;;;;5005549;28;20025;-82
2022/01/21 14:52:57;;;;;;;5.68;2.47;;;;;;;;;;5024043;28;20084;-84
2022/01/21 14:55:33;;;;;;;3.60;1.92;;;;;;;;;;5012097;28;20018;-82
2022/01/21 14:58:13;;;;;;;9.95;2.53;;;;;;;;;;5012373;28;20029;-82
2022/01/21 15:00:45;;;;;;;9.25;2.40;;;;;;;;;;5014252;28;20026;-82
2022/01/21 15:03:31;;;;;;;5.95;1.95;;;;;;;;;;5015146;28;20027;-85
2022/01/21 15:06:15;;;;;;;9.27;2.17;;;;;;;;;;5014043;28;20030;-86
2022/01/21 15:08:43;;;;;;;7.15;1.75;;;;;;;;;;4996663;28;20036;-84
2022/01/21 15:17:13;;;;;;;5.18;2.28;;;;;;;;;;5013598;28;20772;-84
2022/01/21 15:19:44;;;;;;;10.55;2.40;;;;;;;;;;5014658;28;20037;-85
2022/01/21 15:22:23;;;;;;;2.70;1.77;;;;;;;;;;5008016;28;20041;-85
2022/01/21 15:24:51;;;;;;;13.45;2.65;;;;;;;;;;5019635;28;20179;-85
2022/01/21 15:27:16;;;;;;;11.02;2.35;;;;;;;;;;5016022;28;20030;-80
2022/01/21 15:29:42;;;;;;;6.50;2.15;;;;;;;;;;5022398;28;20082;-82
2022/01/21 15:32:10;;;;;;;9.70;2.38;;;;;;;;;;5018215;28;20033;-82
2022/01/21 15:34:42;;;;;;;7.60;2.35;;;;;;;;;;5023210;28;20053;-87
2022/01/21 15:37:13;;;;;;;11.90;2.60;;;;;;;;;;5000373;28;20022;-85
2022/01/21 15:39:43;;;;;;;6.32;2.22;;;;;;;;;;5004835;28;20034;-84
2022/01/21 15:42:09;;;;;;;4.57;2.22;;;;;;;;;;4989123;28;20022;-83
2022/01/21 15:44:34;;;;;;;6.18;2.47;;;;;;;;;;5002491;28;20018;-84
2022/01/21 15:47:00;;;;;;;7.68;2.22;;;;;;;;;;5001591;28;20089;-83
2022/01/21 15:49:26;;;;;;;11.48;2.40;;;;;;;;;;5016457;28;20030;-87
2022/01/21 15:51:53;;;;;;;5.70;2.10;;;;;;;;;;5027617;28;20021;-84
2022/01/21 15:54:19;;;;;;;7.65;2.60;;;;;;;;;;5025248;28;20045;-85
2022/01/21 15:56:45;;;;;;;5.60;2.28;;;;;;;;;;5025570;28;20037;-85
2022/01/21 15:59:10;;;;;;;10.75;2.72;;;;;;;;;;5022427;28;20635;-85
2022/01/21 16:01:37;;;;;;;11.70;2.67;;;;;;;;;;5019002;28;20026;-84
2022/01/21 16:07:25;;;;;;;7.68;2.05;;;;;;;;;;5021235;28;20093;-81